sensor_id;sensor_type;location;lat;lon;timestamp;P1;durP1;ratioP1;P2;durP2;ratioP2
20173;SDS011;10246;50.620;7.232;2022-12-05T00:00:22;25.37;;;13.23;;
20173;SDS011;10246;50.620;7.232;2022-12-05T00:02:49;28.57;;;13.70;;
20173;SDS011;10246;50.620;7.232;2022-12-05T00:05:17;24.10;;;11.93;;
20173;SDS011;10246;50.620;7.232;2022-12-05T00:07:43;23.77;;;12.10;;
20173;SDS011;10246;50.620;7.232;2022-12-05T00:10:10;24.47;;;13.27;;
20173;SDS011;10246;50.620;7.232;2022-12-05T00:12:37;26.60;;;13.30;;
20173;SDS011;10246;50.620;7.232;2022-12-05T00:15:04;24.87;;;12.63;;
20173;SDS011;10246;50.620;7.232;2022-12-05T00:17:33;24.53;;;12.43;;
20173;SDS011;10246;50.620;7.232;2022-12-05T00:20:00;23.10;;;11.80;;
20173;SDS011;10246;50.620;7.232;2022-12-05T00:22:28;25.23;;;13.07;;
20173;SDS011;10246;50.620;7.232;2022-12-05T00:24:55;22.33;;;11.67;;
20173;SDS011;10246;50.620;7.232;2022-12-05T00:27:21;24.97;;;12.50;;
20173;SDS011;10246;50.620;7.232;2022-12-05T00:29:48;27.10;;;12.90;;
20173;SDS011;10246;50.620;7.232;2022-12-05T00:32:15;23.30;;;11.27;;
20173;SDS011;10246;50.620;7.232;2022-12-05T00:34:42;22.03;;;11.50;;
20173;SDS011;10246;50.620;7.232;2022-12-05T00:37:09;26.07;;;12.13;;
20173;SDS011;10246;50.620;7.232;2022-12-05T00:39:37;22.30;;;12.00;;
20173;SDS011;10246;50.620;7.232;2022-12-05T00:42:04;22.57;;;11.93;;
20173;SDS011;10246;50.620;7.232;2022-12-05T00:44:30;21.10;;;11.20;;
20173;SDS011;10246;50.620;7.232;2022-12-05T00:46:57;22.63;;;11.97;;
20173;SDS011;10246;50.620;7.232;2022-12-05T00:49:24;21.73;;;11.97;;
20173;SDS011;10246;50.620;7.232;2022-12-05T00:51:51;25.83;;;13.27;;
20173;SDS011;10246;50.620;7.232;2022-12-05T00:54:18;24.80;;;13.20;;
20173;SDS011;10246;50.620;7.232;2022-12-05T00:56:46;25.87;;;13.27;;
20173;SDS011;10246;50.620;7.232;2022-12-05T00:59:13;24.00;;;12.93;;
20173;SDS011;10246;50.620;7.232;2022-12-05T01:01:41;21.43;;;12.67;;
20173;SDS011;10246;50.620;7.232;2022-12-05T01:04:10;22.53;;;11.70;;
20173;SDS011;10246;50.620;7.232;2022-12-05T01:06:38;25.80;;;12.60;;
20173;SDS011;10246;50.620;7.232;2022-12-05T01:09:06;23.63;;;11.77;;
20173;SDS011;10246;50.620;7.232;2022-12-05T01:11:34;21.90;;;11.73;;
20173;SDS011;10246;50.620;7.232;2022-12-05T01:14:02;20.47;;;11.37;;
20173;SDS011;10246;50.620;7.232;2022-12-05T01:16:29;18.80;;;10.63;;
20173;SDS011;10246;50.620;7.232;2022-12-05T01:19:00;21.27;;;11.47;;
20173;SDS011;10246;50.620;7.232;2022-12-05T01:21:28;19.70;;;10.90;;
20173;SDS011;10246;50.620;7.232;2022-12-05T01:23:55;20.60;;;11.37;;
20173;SDS011;10246;50.620;7.232;2022-12-05T01:26:22;21.40;;;11.20;;
20173;SDS011;10246;50.620;7.232;2022-12-05T01:28:49;20.27;;;11.33;;
20173;SDS011;10246;50.620;7.232;2022-12-05T01:31:20;21.17;;;11.17;;
20173;SDS011;10246;50.620;7.232;2022-12-05T01:33:48;20.60;;;10.93;;
20173;SDS011;10246;50.620;7.232;2022-12-05T01:36:15;20.77;;;11.07;;
20173;SDS011;10246;50.620;7.232;2022-12-05T01:38:43;20.20;;;10.77;;
20173;SDS011;10246;50.620;7.232;2022-12-05T01:41:11;20.07;;;11.40;;
20173;SDS011;10246;50.620;7.232;2022-12-05T01:43:52;19.83;;;11.03;;
20173;SDS011;10246;50.620;7.232;2022-12-05T01:46:21;23.33;;;11.73;;
20173;SDS011;10246;50.620;7.232;2022-12-05T01:48:48;19.83;;;10.57;;
20173;SDS011;10246;50.620;7.232;2022-12-05T01:51:16;19.33;;;10.63;;
20173;SDS011;10246;50.620;7.232;2022-12-05T01:53:43;20.27;;;10.73;;
20173;SDS011;10246;50.620;7.232;2022-12-05T01:56:11;19.00;;;11.03;;
20173;SDS011;10246;50.620;7.232;2022-12-05T01:58:38;17.50;;;10.07;;
20173;SDS011;10246;50.620;7.232;2022-12-05T02:01:07;17.70;;;9.73;;
20173;SDS011;10246;50.620;7.232;2022-12-05T02:03:35;20.33;;;10.83;;
20173;SDS011;10246;50.620;7.232;2022-12-05T02:06:03;17.93;;;10.50;;
20173;SDS011;10246;50.620;7.232;2022-12-05T02:08:30;17.90;;;10.60;;
20173;SDS011;10246;50.620;7.232;2022-12-05T02:10:58;17.40;;;10.43;;
20173;SDS011;10246;50.620;7.232;2022-12-05T02:13:33;15.97;;;9.80;;
20173;SDS011;10246;50.620;7.232;2022-12-05T02:16:16;18.57;;;10.53;;
20173;SDS011;10246;50.620;7.232;2022-12-05T02:18:55;18.00;;;10.47;;
20173;SDS011;10246;50.620;7.232;2022-12-05T02:21:37;16.67;;;9.97;;
20173;SDS011;10246;50.620;7.232;2022-12-05T02:27:26;18.10;;;10.37;;
20173;SDS011;10246;50.620;7.232;2022-12-05T02:30:07;19.13;;;10.47;;
20173;SDS011;10246;50.620;7.232;2022-12-05T02:32:40;18.07;;;9.70;;
20173;SDS011;10246;50.620;7.232;2022-12-05T02:35:20;18.60;;;10.13;;
20173;SDS011;10246;50.620;7.232;2022-12-05T02:38:04;16.57;;;10.63;;
20173;SDS011;10246;50.620;7.232;2022-12-05T02:40:42;17.30;;;9.90;;
20173;SDS011;10246;50.620;7.232;2022-12-05T02:43:17;19.60;;;9.87;;
20173;SDS011;10246;50.620;7.232;2022-12-05T02:45:51;16.50;;;10.33;;
20173;SDS011;10246;50.620;7.232;2022-12-05T02:48:22;20.73;;;10.13;;
20173;SDS011;10246;50.620;7.232;2022-12-05T02:50:53;20.90;;;10.53;;
20173;SDS011;10246;50.620;7.232;2022-12-05T02:53:22;17.37;;;10.47;;
20173;SDS011;10246;50.620;7.232;2022-12-05T02:55:52;19.33;;;9.97;;
20173;SDS011;10246;50.620;7.232;2022-12-05T02:58:20;17.83;;;9.73;;
20173;SDS011;10246;50.620;7.232;2022-12-05T03:00:54;17.80;;;10.63;;
20173;SDS011;10246;50.620;7.232;2022-12-05T03:03:23;17.97;;;10.03;;
20173;SDS011;10246;50.620;7.232;2022-12-05T03:05:53;19.63;;;10.53;;
20173;SDS011;10246;50.620;7.232;2022-12-05T03:08:26;17.43;;;10.67;;
20173;SDS011;10246;50.620;7.232;2022-12-05T03:10:55;18.03;;;10.27;;
20173;SDS011;10246;50.620;7.232;2022-12-05T03:13:26;18.70;;;10.07;;
20173;SDS011;10246;50.620;7.232;2022-12-05T03:15:59;18.73;;;10.30;;
20173;SDS011;10246;50.620;7.232;2022-12-05T03:18:31;18.30;;;10.40;;
20173;SDS011;10246;50.620;7.232;2022-12-05T03:21:07;19.07;;;10.13;;
20173;SDS011;10246;50.620;7.232;2022-12-05T03:23:43;15.23;;;9.40;;
20173;SDS011;10246;50.620;7.232;2022-12-05T03:26:15;18.73;;;9.90;;
20173;SDS011;10246;50.620;7.232;2022-12-05T03:28:48;14.93;;;9.33;;
20173;SDS011;10246;50.620;7.232;2022-12-05T03:31:23;17.13;;;9.53;;
20173;SDS011;10246;50.620;7.232;2022-12-05T03:33:57;18.17;;;9.17;;
20173;SDS011;10246;50.620;7.232;2022-12-05T03:36:27;16.40;;;8.70;;
20173;SDS011;10246;50.620;7.232;2022-12-05T03:39:01;17.17;;;9.07;;
20173;SDS011;10246;50.620;7.232;2022-12-05T03:41:33;13.23;;;8.40;;
20173;SDS011;10246;50.620;7.232;2022-12-05T03:44:06;16.20;;;8.60;;
20173;SDS011;10246;50.620;7.232;2022-12-05T03:46:39;14.00;;;7.97;;
20173;SDS011;10246;50.620;7.232;2022-12-05T03:49:10;15.40;;;9.63;;
20173;SDS011;10246;50.620;7.232;2022-12-05T03:51:41;16.47;;;9.67;;
20173;SDS011;10246;50.620;7.232;2022-12-05T03:54:14;17.43;;;9.60;;
20173;SDS011;10246;50.620;7.232;2022-12-05T03:56:48;15.50;;;9.60;;
20173;SDS011;10246;50.620;7.232;2022-12-05T03:59:19;14.97;;;9.63;;
20173;SDS011;10246;50.620;7.232;2022-12-05T04:01:53;18.37;;;9.77;;
20173;SDS011;10246;50.620;7.232;2022-12-05T04:04:24;15.97;;;9.53;;
20173;SDS011;10246;50.620;7.232;2022-12-05T04:06:57;14.97;;;9.30;;
20173;SDS011;10246;50.620;7.232;2022-12-05T04:09:30;14.60;;;8.67;;
20173;SDS011;10246;50.620;7.232;2022-12-05T04:12:02;16.27;;;9.27;;
20173;SDS011;10246;50.620;7.232;2022-12-05T04:14:34;16.33;;;9.10;;
20173;SDS011;10246;50.620;7.232;2022-12-05T04:17:06;18.73;;;9.30;;
20173;SDS011;10246;50.620;7.232;2022-12-05T04:19:38;16.63;;;8.53;;
20173;SDS011;10246;50.620;7.232;2022-12-05T04:22:26;14.70;;;9.23;;
20173;SDS011;10246;50.620;7.232;2022-12-05T04:24:54;15.87;;;9.70;;
20173;SDS011;10246;50.620;7.232;2022-12-05T04:27:41;13.97;;;8.73;;
20173;SDS011;10246;50.620;7.232;2022-12-05T04:30:15;16.03;;;8.97;;
20173;SDS011;10246;50.620;7.232;2022-12-05T04:32:47;15.73;;;8.87;;
20173;SDS011;10246;50.620;7.232;2022-12-05T04:35:17;17.10;;;8.83;;
20173;SDS011;10246;50.620;7.232;2022-12-05T04:37:50;14.13;;;8.67;;
20173;SDS011;10246;50.620;7.232;2022-12-05T04:40:23;13.63;;;8.33;;
20173;SDS011;10246;50.620;7.232;2022-12-05T04:42:54;16.00;;;8.23;;
20173;SDS011;10246;50.620;7.232;2022-12-05T04:45:23;13.87;;;8.53;;
20173;SDS011;10246;50.620;7.232;2022-12-05T04:47:54;14.27;;;8.77;;
20173;SDS011;10246;50.620;7.232;2022-12-05T04:50:24;15.33;;;8.70;;
20173;SDS011;10246;50.620;7.232;2022-12-05T04:52:55;12.67;;;8.50;;
20173;SDS011;10246;50.620;7.232;2022-12-05T04:55:24;14.80;;;8.73;;
20173;SDS011;10246;50.620;7.232;2022-12-05T04:57:54;11.77;;;8.43;;
20173;SDS011;10246;50.620;7.232;2022-12-05T05:00:26;12.40;;;8.00;;
20173;SDS011;10246;50.620;7.232;2022-12-05T05:02:57;13.57;;;8.63;;
20173;SDS011;10246;50.620;7.232;2022-12-05T05:05:28;11.70;;;7.33;;
20173;SDS011;10246;50.620;7.232;2022-12-05T05:07:57;14.23;;;7.77;;
20173;SDS011;10246;50.620;7.232;2022-12-05T05:10:25;13.67;;;8.40;;
20173;SDS011;10246;50.620;7.232;2022-12-05T05:12:57;13.00;;;8.80;;
20173;SDS011;10246;50.620;7.232;2022-12-05T05:15:25;11.77;;;8.73;;
20173;SDS011;10246;50.620;7.232;2022-12-05T05:17:52;16.53;;;9.30;;
20173;SDS011;10246;50.620;7.232;2022-12-05T05:20:20;16.07;;;9.53;;
20173;SDS011;10246;50.620;7.232;2022-12-05T05:22:51;17.00;;;10.33;;
20173;SDS011;10246;50.620;7.232;2022-12-05T05:25:18;14.50;;;8.87;;
20173;SDS011;10246;50.620;7.232;2022-12-05T05:27:46;14.40;;;8.73;;
20173;SDS011;10246;50.620;7.232;2022-12-05T05:30:14;14.27;;;8.87;;
20173;SDS011;10246;50.620;7.232;2022-12-05T05:32:42;17.33;;;10.57;;
20173;SDS011;10246;50.620;7.232;2022-12-05T05:35:08;24.27;;;12.03;;
20173;SDS011;10246;50.620;7.232;2022-12-05T05:37:38;26.27;;;12.57;;
20173;SDS011;10246;50.620;7.232;2022-12-05T05:40:06;23.03;;;13.17;;
20173;SDS011;10246;50.620;7.232;2022-12-05T05:42:40;23.80;;;13.50;;
20173;SDS011;10246;50.620;7.232;2022-12-05T05:45:08;25.43;;;13.07;;
20173;SDS011;10246;50.620;7.232;2022-12-05T05:47:35;24.17;;;11.93;;
20173;SDS011;10246;50.620;7.232;2022-12-05T05:50:02;23.53;;;12.90;;
20173;SDS011;10246;50.620;7.232;2022-12-05T05:52:31;21.70;;;13.03;;
20173;SDS011;10246;50.620;7.232;2022-12-05T05:54:59;24.60;;;13.83;;
20173;SDS011;10246;50.620;7.232;2022-12-05T05:57:27;24.17;;;14.90;;
20173;SDS011;10246;50.620;7.232;2022-12-05T05:59:54;23.33;;;13.67;;
20173;SDS011;10246;50.620;7.232;2022-12-05T06:02:20;21.43;;;12.93;;
20173;SDS011;10246;50.620;7.232;2022-12-05T06:04:48;20.27;;;12.30;;
20173;SDS011;10246;50.620;7.232;2022-12-05T06:07:14;15.37;;;9.83;;
20173;SDS011;10246;50.620;7.232;2022-12-05T06:09:41;13.30;;;8.40;;
20173;SDS011;10246;50.620;7.232;2022-12-05T06:12:09;12.07;;;7.83;;
20173;SDS011;10246;50.620;7.232;2022-12-05T06:14:37;12.73;;;7.63;;
20173;SDS011;10246;50.620;7.232;2022-12-05T06:17:03;11.00;;;7.30;;
20173;SDS011;10246;50.620;7.232;2022-12-05T06:19:30;10.33;;;6.87;;
20173;SDS011;10246;50.620;7.232;2022-12-05T06:21:57;9.53;;;6.67;;
20173;SDS011;10246;50.620;7.232;2022-12-05T06:24:24;10.77;;;6.70;;
20173;SDS011;10246;50.620;7.232;2022-12-05T06:26:50;10.00;;;6.87;;
20173;SDS011;10246;50.620;7.232;2022-12-05T06:29:18;8.63;;;6.10;;
20173;SDS011;10246;50.620;7.232;2022-12-05T06:31:45;8.50;;;6.47;;
20173;SDS011;10246;50.620;7.232;2022-12-05T06:34:12;8.97;;;6.23;;
20173;SDS011;10246;50.620;7.232;2022-12-05T06:36:38;8.43;;;5.87;;
20173;SDS011;10246;50.620;7.232;2022-12-05T06:39:05;9.97;;;6.27;;
20173;SDS011;10246;50.620;7.232;2022-12-05T06:41:32;8.83;;;5.97;;
20173;SDS011;10246;50.620;7.232;2022-12-05T06:43:59;9.40;;;6.40;;
20173;SDS011;10246;50.620;7.232;2022-12-05T06:46:27;8.00;;;5.83;;
20173;SDS011;10246;50.620;7.232;2022-12-05T06:48:55;8.77;;;5.80;;
20173;SDS011;10246;50.620;7.232;2022-12-05T06:51:23;8.90;;;5.70;;
20173;SDS011;10246;50.620;7.232;2022-12-05T06:53:50;8.23;;;5.70;;
20173;SDS011;10246;50.620;7.232;2022-12-05T06:56:17;8.10;;;5.53;;
20173;SDS011;10246;50.620;7.232;2022-12-05T06:58:45;7.17;;;5.50;;
20173;SDS011;10246;50.620;7.232;2022-12-05T07:01:14;10.73;;;6.40;;
20173;SDS011;10246;50.620;7.232;2022-12-05T07:04:07;6.93;;;5.63;;
20173;SDS011;10246;50.620;7.232;2022-12-05T07:06:36;7.77;;;5.27;;
20173;SDS011;10246;50.620;7.232;2022-12-05T07:09:05;9.03;;;5.63;;
20173;SDS011;10246;50.620;7.232;2022-12-05T07:11:32;9.20;;;6.30;;
20173;SDS011;10246;50.620;7.232;2022-12-05T07:13:59;10.30;;;6.73;;
20173;SDS011;10246;50.620;7.232;2022-12-05T07:16:26;7.20;;;5.20;;
20173;SDS011;10246;50.620;7.232;2022-12-05T07:18:53;8.03;;;5.47;;
20173;SDS011;10246;50.620;7.232;2022-12-05T07:21:21;6.80;;;5.37;;
20173;SDS011;10246;50.620;7.232;2022-12-05T07:23:49;7.53;;;5.77;;
20173;SDS011;10246;50.620;7.232;2022-12-05T07:26:16;9.43;;;6.27;;
20173;SDS011;10246;50.620;7.232;2022-12-05T07:28:44;9.67;;;7.03;;
20173;SDS011;10246;50.620;7.232;2022-12-05T07:31:11;12.07;;;7.80;;
20173;SDS011;10246;50.620;7.232;2022-12-05T07:33:40;10.27;;;7.00;;
20173;SDS011;10246;50.620;7.232;2022-12-05T07:36:08;8.87;;;6.57;;
20173;SDS011;10246;50.620;7.232;2022-12-05T07:38:39;7.20;;;5.07;;
20173;SDS011;10246;50.620;7.232;2022-12-05T07:41:08;8.60;;;6.27;;
20173;SDS011;10246;50.620;7.232;2022-12-05T07:43:39;8.87;;;6.33;;
20173;SDS011;10246;50.620;7.232;2022-12-05T07:46:06;8.27;;;6.00;;
20173;SDS011;10246;50.620;7.232;2022-12-05T07:48:35;9.43;;;6.40;;
20173;SDS011;10246;50.620;7.232;2022-12-05T07:51:02;9.00;;;6.47;;
20173;SDS011;10246;50.620;7.232;2022-12-05T07:53:31;12.00;;;7.43;;
20173;SDS011;10246;50.620;7.232;2022-12-05T07:56:00;9.40;;;6.70;;
20173;SDS011;10246;50.620;7.232;2022-12-05T07:58:30;10.23;;;7.03;;
20173;SDS011;10246;50.620;7.232;2022-12-05T08:01:04;11.60;;;7.33;;
20173;SDS011;10246;50.620;7.232;2022-12-05T08:03:31;10.63;;;7.30;;
20173;SDS011;10246;50.620;7.232;2022-12-05T08:06:00;14.00;;;8.77;;
20173;SDS011;10246;50.620;7.232;2022-12-05T08:08:27;13.53;;;9.33;;
20173;SDS011;10246;50.620;7.232;2022-12-05T08:10:54;11.97;;;9.03;;
20173;SDS011;10246;50.620;7.232;2022-12-05T08:13:22;10.80;;;7.87;;
20173;SDS011;10246;50.620;7.232;2022-12-05T08:15:49;10.67;;;7.90;;
20173;SDS011;10246;50.620;7.232;2022-12-05T08:18:15;12.17;;;7.90;;
20173;SDS011;10246;50.620;7.232;2022-12-05T08:20:42;11.43;;;8.00;;
20173;SDS011;10246;50.620;7.232;2022-12-05T08:23:09;10.77;;;7.43;;
20173;SDS011;10246;50.620;7.232;2022-12-05T08:25:36;10.57;;;7.60;;
20173;SDS011;10246;50.620;7.232;2022-12-05T08:28:03;9.93;;;7.47;;
20173;SDS011;10246;50.620;7.232;2022-12-05T08:30:31;9.70;;;7.00;;
20173;SDS011;10246;50.620;7.232;2022-12-05T08:32:58;8.77;;;6.43;;
20173;SDS011;10246;50.620;7.232;2022-12-05T08:35:26;9.27;;;6.87;;
20173;SDS011;10246;50.620;7.232;2022-12-05T08:37:53;9.80;;;6.60;;
20173;SDS011;10246;50.620;7.232;2022-12-05T08:40:19;8.27;;;6.03;;
20173;SDS011;10246;50.620;7.232;2022-12-05T08:42:46;7.77;;;6.30;;
20173;SDS011;10246;50.620;7.232;2022-12-05T08:45:13;8.97;;;6.47;;
20173;SDS011;10246;50.620;7.232;2022-12-05T08:47:41;8.17;;;6.87;;
20173;SDS011;10246;50.620;7.232;2022-12-05T08:50:08;11.50;;;8.00;;
20173;SDS011;10246;50.620;7.232;2022-12-05T08:52:35;12.17;;;8.03;;
20173;SDS011;10246;50.620;7.232;2022-12-05T08:55:01;10.07;;;7.07;;
20173;SDS011;10246;50.620;7.232;2022-12-05T08:57:28;10.33;;;7.03;;
20173;SDS011;10246;50.620;7.232;2022-12-05T08:59:55;7.87;;;5.57;;
20173;SDS011;10246;50.620;7.232;2022-12-05T09:02:22;7.53;;;5.77;;
20173;SDS011;10246;50.620;7.232;2022-12-05T09:04:50;9.07;;;6.10;;
20173;SDS011;10246;50.620;7.232;2022-12-05T09:07:17;8.57;;;6.23;;
20173;SDS011;10246;50.620;7.232;2022-12-05T09:09:44;7.63;;;5.57;;
20173;SDS011;10246;50.620;7.232;2022-12-05T09:12:11;8.40;;;5.80;;
20173;SDS011;10246;50.620;7.232;2022-12-05T09:14:38;7.20;;;5.40;;
20173;SDS011;10246;50.620;7.232;2022-12-05T09:17:05;7.33;;;5.63;;
20173;SDS011;10246;50.620;7.232;2022-12-05T09:19:32;6.00;;;5.10;;
20173;SDS011;10246;50.620;7.232;2022-12-05T09:22:00;7.57;;;5.53;;
20173;SDS011;10246;50.620;7.232;2022-12-05T09:24:27;8.37;;;5.60;;
20173;SDS011;10246;50.620;7.232;2022-12-05T09:26:53;10.37;;;6.23;;
20173;SDS011;10246;50.620;7.232;2022-12-05T09:29:20;7.93;;;5.80;;
20173;SDS011;10246;50.620;7.232;2022-12-05T09:31:49;8.03;;;6.07;;
20173;SDS011;10246;50.620;7.232;2022-12-05T09:34:18;7.43;;;5.67;;
20173;SDS011;10246;50.620;7.232;2022-12-05T09:36:45;9.27;;;5.90;;
20173;SDS011;10246;50.620;7.232;2022-12-05T09:39:17;6.77;;;5.10;;
20173;SDS011;10246;50.620;7.232;2022-12-05T09:41:51;8.67;;;6.03;;
20173;SDS011;10246;50.620;7.232;2022-12-05T09:44:55;9.00;;;6.40;;
20173;SDS011;10246;50.620;7.232;2022-12-05T09:47:40;7.60;;;5.67;;
20173;SDS011;10246;50.620;7.232;2022-12-05T09:50:15;7.77;;;6.17;;
20173;SDS011;10246;50.620;7.232;2022-12-05T09:52:50;8.87;;;5.93;;
20173;SDS011;10246;50.620;7.232;2022-12-05T09:55:25;7.60;;;5.87;;
20173;SDS011;10246;50.620;7.232;2022-12-05T09:57:59;6.27;;;4.97;;
20173;SDS011;10246;50.620;7.232;2022-12-05T10:00:28;6.77;;;5.37;;
20173;SDS011;10246;50.620;7.232;2022-12-05T10:02:58;6.00;;;5.10;;
20173;SDS011;10246;50.620;7.232;2022-12-05T10:05:35;6.60;;;5.20;;
20173;SDS011;10246;50.620;7.232;2022-12-05T10:08:10;8.93;;;5.60;;
20173;SDS011;10246;50.620;7.232;2022-12-05T10:10:47;8.60;;;6.00;;
20173;SDS011;10246;50.620;7.232;2022-12-05T10:13:28;7.47;;;5.67;;
20173;SDS011;10246;50.620;7.232;2022-12-05T10:16:08;6.43;;;5.47;;
20173;SDS011;10246;50.620;7.232;2022-12-05T10:18:38;7.43;;;5.87;;
20173;SDS011;10246;50.620;7.232;2022-12-05T10:21:12;9.93;;;6.83;;
20173;SDS011;10246;50.620;7.232;2022-12-05T10:23:46;10.13;;;7.27;;
20173;SDS011;10246;50.620;7.232;2022-12-05T10:26:21;10.83;;;7.20;;
20173;SDS011;10246;50.620;7.232;2022-12-05T10:28:50;8.70;;;6.60;;
20173;SDS011;10246;50.620;7.232;2022-12-05T10:31:23;7.90;;;6.10;;
20173;SDS011;10246;50.620;7.232;2022-12-05T10:33:55;8.17;;;6.07;;
20173;SDS011;10246;50.620;7.232;2022-12-05T10:36:27;6.40;;;5.07;;
20173;SDS011;10246;50.620;7.232;2022-12-05T10:38:54;8.00;;;5.80;;
20173;SDS011;10246;50.620;7.232;2022-12-05T10:41:23;8.10;;;6.00;;
20173;SDS011;10246;50.620;7.232;2022-12-05T10:43:50;8.17;;;6.13;;
20173;SDS011;10246;50.620;7.232;2022-12-05T10:46:17;23.70;;;15.17;;
20173;SDS011;10246;50.620;7.232;2022-12-05T10:48:44;33.53;;;19.73;;
20173;SDS011;10246;50.620;7.232;2022-12-05T10:51:12;63.27;;;33.80;;
20173;SDS011;10246;50.620;7.232;2022-12-05T10:53:42;36.03;;;23.20;;
20173;SDS011;10246;50.620;7.232;2022-12-05T10:59:04;19.70;;;13.33;;
20173;SDS011;10246;50.620;7.232;2022-12-05T11:01:32;17.20;;;11.90;;
20173;SDS011;10246;50.620;7.232;2022-12-05T11:04:03;17.70;;;11.73;;
20173;SDS011;10246;50.620;7.232;2022-12-05T11:06:38;16.23;;;10.93;;
20173;SDS011;10246;50.620;7.232;2022-12-05T11:09:17;18.53;;;13.80;;
20173;SDS011;10246;50.620;7.232;2022-12-05T11:11:57;17.37;;;12.47;;
20173;SDS011;10246;50.620;7.232;2022-12-05T11:14:29;17.40;;;11.90;;
20173;SDS011;10246;50.620;7.232;2022-12-05T11:16:58;14.67;;;10.73;;
20173;SDS011;10246;50.620;7.232;2022-12-05T11:19:26;15.60;;;10.70;;
20173;SDS011;10246;50.620;7.232;2022-12-05T11:21:54;15.23;;;10.47;;
20173;SDS011;10246;50.620;7.232;2022-12-05T11:24:23;14.37;;;10.20;;
20173;SDS011;10246;50.620;7.232;2022-12-05T11:26:52;15.00;;;10.90;;
20173;SDS011;10246;50.620;7.232;2022-12-05T11:29:28;15.77;;;11.53;;
20173;SDS011;10246;50.620;7.232;2022-12-05T11:31:56;21.07;;;14.93;;
20173;SDS011;10246;50.620;7.232;2022-12-05T11:34:24;19.17;;;13.07;;
20173;SDS011;10246;50.620;7.232;2022-12-05T11:36:55;16.83;;;11.87;;
20173;SDS011;10246;50.620;7.232;2022-12-05T11:39:25;18.47;;;12.07;;
20173;SDS011;10246;50.620;7.232;2022-12-05T11:42:02;15.80;;;11.77;;
20173;SDS011;10246;50.620;7.232;2022-12-05T11:44:57;18.23;;;12.63;;
20173;SDS011;10246;50.620;7.232;2022-12-05T11:47:47;18.57;;;12.03;;
20173;SDS011;10246;50.620;7.232;2022-12-05T11:50:32;17.47;;;11.00;;
20173;SDS011;10246;50.620;7.232;2022-12-05T11:53:10;16.67;;;10.77;;
20173;SDS011;10246;50.620;7.232;2022-12-05T11:55:50;15.77;;;10.37;;
20173;SDS011;10246;50.620;7.232;2022-12-05T11:58:31;17.07;;;11.27;;
20173;SDS011;10246;50.620;7.232;2022-12-05T12:01:15;19.03;;;11.20;;
20173;SDS011;10246;50.620;7.232;2022-12-05T12:07:00;16.70;;;10.60;;
20173;SDS011;10246;50.620;7.232;2022-12-05T12:09:49;18.07;;;11.10;;
20173;SDS011;10246;50.620;7.232;2022-12-05T12:12:22;17.63;;;10.87;;
20173;SDS011;10246;50.620;7.232;2022-12-05T12:14:58;16.53;;;10.77;;
20173;SDS011;10246;50.620;7.232;2022-12-05T12:17:37;16.77;;;10.93;;
20173;SDS011;10246;50.620;7.232;2022-12-05T12:20:15;15.87;;;11.40;;
20173;SDS011;10246;50.620;7.232;2022-12-05T12:22:54;16.83;;;11.20;;
20173;SDS011;10246;50.620;7.232;2022-12-05T12:25:37;15.97;;;11.63;;
20173;SDS011;10246;50.620;7.232;2022-12-05T12:28:15;16.63;;;11.17;;
20173;SDS011;10246;50.620;7.232;2022-12-05T12:30:55;15.73;;;11.00;;
20173;SDS011;10246;50.620;7.232;2022-12-05T12:33:33;16.03;;;10.87;;
20173;SDS011;10246;50.620;7.232;2022-12-05T12:36:05;15.97;;;10.67;;
20173;SDS011;10246;50.620;7.232;2022-12-05T12:48:08;16.03;;;11.07;;
20173;SDS011;10246;50.620;7.232;2022-12-05T12:50:48;19.70;;;12.20;;
20173;SDS011;10246;50.620;7.232;2022-12-05T12:53:22;16.50;;;11.33;;
20173;SDS011;10246;50.620;7.232;2022-12-05T12:56:01;18.93;;;12.03;;
20173;SDS011;10246;50.620;7.232;2022-12-05T12:58:38;16.93;;;11.77;;
20173;SDS011;10246;50.620;7.232;2022-12-05T13:01:14;16.73;;;11.07;;
20173;SDS011;10246;50.620;7.232;2022-12-05T13:03:49;18.23;;;12.17;;
20173;SDS011;10246;50.620;7.232;2022-12-05T13:06:23;18.73;;;13.10;;
20173;SDS011;10246;50.620;7.232;2022-12-05T13:08:55;18.43;;;12.43;;
20173;SDS011;10246;50.620;7.232;2022-12-05T13:11:26;18.70;;;12.00;;
20173;SDS011;10246;50.620;7.232;2022-12-05T13:13:59;17.47;;;11.47;;
20173;SDS011;10246;50.620;7.232;2022-12-05T13:16:27;15.97;;;10.57;;
20173;SDS011;10246;50.620;7.232;2022-12-05T13:18:56;14.20;;;9.73;;
20173;SDS011;10246;50.620;7.232;2022-12-05T13:21:25;12.87;;;8.83;;
20173;SDS011;10246;50.620;7.232;2022-12-05T13:23:53;12.70;;;8.60;;
20173;SDS011;10246;50.620;7.232;2022-12-05T13:26:23;11.70;;;8.30;;
20173;SDS011;10246;50.620;7.232;2022-12-05T13:28:50;15.20;;;10.00;;
20173;SDS011;10246;50.620;7.232;2022-12-05T13:31:32;13.97;;;10.20;;
20173;SDS011;10246;50.620;7.232;2022-12-05T13:34:01;13.40;;;9.47;;
20173;SDS011;10246;50.620;7.232;2022-12-05T13:36:29;15.47;;;9.93;;
20173;SDS011;10246;50.620;7.232;2022-12-05T13:39:22;14.63;;;10.40;;
20173;SDS011;10246;50.620;7.232;2022-12-05T13:42:17;17.20;;;11.33;;
20173;SDS011;10246;50.620;7.232;2022-12-05T13:44:47;17.03;;;11.10;;
20173;SDS011;10246;50.620;7.232;2022-12-05T13:47:20;19.73;;;13.27;;
20173;SDS011;10246;50.620;7.232;2022-12-05T13:49:54;17.90;;;11.47;;
20173;SDS011;10246;50.620;7.232;2022-12-05T13:52:27;16.90;;;11.53;;
20173;SDS011;10246;50.620;7.232;2022-12-05T13:54:57;16.50;;;10.90;;
20173;SDS011;10246;50.620;7.232;2022-12-05T13:57:50;16.60;;;11.20;;
20173;SDS011;10246;50.620;7.232;2022-12-05T14:00:20;16.80;;;10.60;;
20173;SDS011;10246;50.620;7.232;2022-12-05T14:02:52;17.30;;;11.03;;
20173;SDS011;10246;50.620;7.232;2022-12-05T14:05:36;16.53;;;11.20;;
20173;SDS011;10246;50.620;7.232;2022-12-05T14:11:18;15.80;;;11.30;;
20173;SDS011;10246;50.620;7.232;2022-12-05T14:13:45;15.77;;;11.37;;
20173;SDS011;10246;50.620;7.232;2022-12-05T14:22:19;16.87;;;10.97;;
20173;SDS011;10246;50.620;7.232;2022-12-05T14:25:09;15.40;;;10.00;;
20173;SDS011;10246;50.620;7.232;2022-12-05T14:27:48;19.23;;;12.00;;
20173;SDS011;10246;50.620;7.232;2022-12-05T14:30:21;28.97;;;17.10;;
20173;SDS011;10246;50.620;7.232;2022-12-05T14:32:51;30.17;;;17.53;;
20173;SDS011;10246;50.620;7.232;2022-12-05T14:35:20;25.73;;;16.83;;
20173;SDS011;10246;50.620;7.232;2022-12-05T14:37:51;25.17;;;16.00;;
20173;SDS011;10246;50.620;7.232;2022-12-05T14:40:23;27.17;;;14.27;;
20173;SDS011;10246;50.620;7.232;2022-12-05T14:42:55;24.80;;;15.90;;
20173;SDS011;10246;50.620;7.232;2022-12-05T14:45:26;23.00;;;14.50;;
20173;SDS011;10246;50.620;7.232;2022-12-05T14:47:57;22.47;;;12.70;;
20173;SDS011;10246;50.620;7.232;2022-12-05T14:50:35;18.37;;;12.10;;
20173;SDS011;10246;50.620;7.232;2022-12-05T14:53:13;14.93;;;10.83;;
20173;SDS011;10246;50.620;7.232;2022-12-05T14:55:51;14.90;;;10.00;;
20173;SDS011;10246;50.620;7.232;2022-12-05T14:58:20;14.13;;;10.43;;
20173;SDS011;10246;50.620;7.232;2022-12-05T15:00:59;15.40;;;10.37;;
20173;SDS011;10246;50.620;7.232;2022-12-05T15:03:29;16.93;;;10.90;;
20173;SDS011;10246;50.620;7.232;2022-12-05T15:06:00;14.27;;;9.87;;
20173;SDS011;10246;50.620;7.232;2022-12-05T15:08:28;16.03;;;10.63;;
20173;SDS011;10246;50.620;7.232;2022-12-05T15:11:01;15.23;;;10.30;;
20173;SDS011;10246;50.620;7.232;2022-12-05T15:13:29;15.67;;;10.70;;
20173;SDS011;10246;50.620;7.232;2022-12-05T15:15:59;13.73;;;9.53;;
20173;SDS011;10246;50.620;7.232;2022-12-05T15:18:33;14.20;;;9.73;;
20173;SDS011;10246;50.620;7.232;2022-12-05T15:21:06;14.77;;;9.47;;